createdAt,value
2017-12-24T00:00:34.584Z,75.07
2017-12-24T00:03:02.956Z,74.82
2017-12-24T00:05:31.344Z,75.02
2017-12-24T00:07:59.720Z,75.08
2017-12-24T00:10:28.096Z,74.50
2017-12-24T00:12:56.464Z,74.84
2017-12-24T00:15:25.656Z,74.41
2017-12-24T00:17:54.077Z,74.58
2017-12-24T00:20:23.212Z,74.00
2017-12-24T00:22:52.341Z,74.59
2017-12-24T00:25:20.805Z,73.72
2017-12-24T00:27:49.317Z,73.40
2017-12-24T00:30:17.674Z,73.70
2017-12-24T00:32:46.128Z,73.97
2017-12-24T00:35:15.262Z,73.86
2017-12-24T00:37:43.604Z,73.79
2017-12-24T00:40:12.747Z,74.05
2017-12-24T00:42:41.101Z,74.21
2017-12-24T00:45:09.482Z,74.12
2017-12-24T00:47:37.821Z,74.28
2017-12-24T00:50:07.168Z,74.27
2017-12-24T00:52:35.523Z,74.55
2017-12-24T00:55:04.283Z,74.43
2017-12-24T00:57:33.536Z,74.62
2017-12-24T01:00:02.008Z,74.87
2017-12-24T01:02:30.431Z,75.42
2017-12-24T01:04:59.663Z,76.00
2017-12-24T01:07:28.080Z,75.81
2017-12-24T01:09:56.391Z,76.24
2017-12-24T01:12:24.960Z,76.21
2017-12-24T01:14:53.291Z,75.90
2017-12-24T01:17:21.780Z,76.46
2017-12-24T01:19:50.159Z,76.97
2017-12-24T01:22:18.531Z,77.60
2017-12-24T01:24:47.752Z,76.85
2017-12-24T01:27:16.088Z,76.89
2017-12-24T01:29:44.450Z,76.55
2017-12-24T01:32:12.803Z,76.63
2017-12-24T01:34:41.195Z,77.08
2017-12-24T01:37:09.576Z,76.89
2017-12-24T01:39:37.910Z,76.48
2017-12-24T01:42:06.314Z,76.36
2017-12-24T01:44:34.687Z,76.08
2017-12-24T01:47:03.038Z,76.17
2017-12-24T01:49:31.387Z,76.10
2017-12-24T01:51:59.754Z,76.00
2017-12-24T01:54:28.854Z,76.04
2017-12-24T01:56:57.983Z,76.39
2017-12-24T01:59:26.331Z,76.00
2017-12-24T02:01:55.454Z,76.30
2017-12-24T02:04:23.797Z,75.73
2017-12-24T02:06:52.939Z,75.65
2017-12-24T02:09:21.282Z,75.86
2017-12-24T02:11:49.643Z,75.94
2017-12-24T02:14:18.742Z,75.58
2017-12-24T02:16:47.846Z,75.56
2017-12-24T02:19:16.970Z,75.79
2017-12-24T02:21:45.340Z,75.84
2017-12-24T02:24:13.730Z,75.69
2017-12-24T02:26:42.091Z,75.66
2017-12-24T02:29:10.431Z,75.60
2017-12-24T02:31:38.793Z,75.98
2017-12-24T02:34:07.167Z,76.22
2017-12-24T02:36:35.502Z,76.32
2017-12-24T02:39:03.874Z,76.01
2017-12-24T02:41:33.011Z,75.73
2017-12-24T02:44:01.326Z,75.90
2017-12-24T02:46:30.442Z,75.76
2017-12-24T02:48:58.806Z,75.88
2017-12-24T02:51:27.188Z,75.81
2017-12-24T02:53:55.534Z,76.27
2017-12-24T02:56:23.866Z,76.16
2017-12-24T02:58:52.242Z,76.20
2017-12-24T03:01:20.619Z,76.34
2017-12-24T03:03:48.978Z,75.99
2017-12-24T03:06:17.324Z,76.00
2017-12-24T03:08:45.778Z,75.79
2017-12-24T03:11:14.122Z,75.41
2017-12-24T03:13:42.443Z,75.32
2017-12-24T03:16:10.798Z,75.28
2017-12-24T03:18:39.122Z,75.31
2017-12-24T03:21:07.502Z,75.82
2017-12-24T03:23:35.850Z,75.39
2017-12-24T03:26:04.184Z,75.32
2017-12-24T03:28:32.546Z,75.35
2017-12-24T03:31:01.653Z,75.57
2017-12-24T03:33:30.794Z,75.53
2017-12-24T03:35:59.123Z,75.28
2017-12-24T03:38:28.257Z,75.51
2017-12-24T03:40:56.601Z,75.89
2017-12-24T03:43:24.965Z,75.92
2017-12-24T03:45:53.720Z,74.90
2017-12-24T03:48:22.097Z,74.74
2017-12-24T03:50:50.430Z,74.65
2017-12-24T03:53:18.830Z,74.79
2017-12-24T03:55:47.164Z,74.72
2017-12-24T03:58:16.274Z,74.66
2017-12-24T04:00:44.662Z,74.21
2017-12-24T04:03:13.389Z,73.73
2017-12-24T04:05:42.518Z,73.62
2017-12-24T04:08:11.638Z,73.33
2017-12-24T04:10:39.977Z,73.73
2017-12-24T04:13:08.362Z,73.26
2017-12-24T04:15:37.474Z,73.34
2017-12-24T04:18:05.818Z,73.22
2017-12-24T04:20:34.198Z,73.21
2017-12-24T04:23:02.553Z,73.34
2017-12-24T04:25:30.922Z,72.80
2017-12-24T04:27:59.257Z,72.66
2017-12-24T04:30:28.390Z,72.63
2017-12-24T04:32:56.765Z,73.28
2017-12-24T04:35:25.094Z,72.98
2017-12-24T04:37:54.213Z,72.63
2017-12-24T04:40:22.577Z,72.43
2017-12-24T04:42:50.954Z,72.35
2017-12-24T04:45:20.049Z,72.25
2017-12-24T04:47:49.197Z,72.62
2017-12-24T04:50:18.286Z,72.08
2017-12-24T04:52:46.613Z,72.31
2017-12-24T04:55:15.757Z,72.40
2017-12-24T04:57:44.087Z,72.53
2017-12-24T05:00:13.187Z,72.15
2017-12-24T05:02:42.313Z,72.18
2017-12-24T05:05:10.653Z,72.51
2017-12-24T05:07:39.765Z,72.42
2017-12-24T05:10:08.885Z,72.61
2017-12-24T05:12:37.257Z,72.64
2017-12-24T05:15:05.633Z,72.14
2017-12-24T05:17:33.973Z,72.57
2017-12-24T05:20:02.297Z,72.69
2017-12-24T05:22:30.669Z,72.37
2017-12-24T05:24:59.041Z,72.46
2017-12-24T05:27:27.365Z,72.95
2017-12-24T05:29:55.740Z,72.39
2017-12-24T05:32:24.072Z,72.58
2017-12-24T05:34:52.416Z,72.81
2017-12-24T05:37:20.793Z,72.62
2017-12-24T05:39:49.117Z,72.45
2017-12-24T05:42:17.481Z,73.02
2017-12-24T05:44:45.865Z,72.52
2017-12-24T05:47:14.221Z,72.67
2017-12-24T05:49:43.401Z,73.32
2017-12-24T05:52:11.733Z,73.08
2017-12-24T05:54:40.068Z,72.85
2017-12-24T05:57:09.209Z,72.58
2017-12-24T05:59:37.525Z,72.63
2017-12-24T06:02:05.863Z,73.12
2017-12-24T06:04:34.237Z,73.31
2017-12-24T06:07:03.008Z,73.70
2017-12-24T06:09:31.764Z,73.63
2017-12-24T06:12:00.857Z,73.23
2017-12-24T06:14:29.229Z,73.41
2017-12-24T06:16:57.569Z,73.35
2017-12-24T06:19:25.910Z,73.49
2017-12-24T06:21:54.234Z,73.38
2017-12-24T06:24:22.593Z,73.43
2017-12-24T06:26:50.933Z,73.48
2017-12-24T06:29:20.061Z,73.22
2017-12-24T06:31:48.395Z,73.62
2017-12-24T06:34:17.521Z,73.96
2017-12-24T06:36:45.844Z,73.78
2017-12-24T06:39:14.209Z,73.77
2017-12-24T06:41:42.548Z,73.84
2017-12-24T06:44:10.909Z,74.12
2017-12-24T06:46:40.046Z,74.19
2017-12-24T06:49:09.565Z,74.02
2017-12-24T06:51:37.900Z,73.73
2017-12-24T06:54:06.244Z,73.74
2017-12-24T06:56:34.621Z,74.07
2017-12-24T06:59:03.016Z,73.67
2017-12-24T07:01:32.169Z,73.40
2017-12-24T07:04:00.528Z,73.63
2017-12-24T07:06:29.012Z,73.70
2017-12-24T07:08:57.389Z,73.62
2017-12-24T07:11:27.508Z,73.36
2017-12-24T07:13:55.900Z,73.67
2017-12-24T07:16:24.238Z,74.15
2017-12-24T07:18:52.609Z,74.79
2017-12-24T07:21:21.740Z,73.63
2017-12-24T07:23:50.225Z,73.29
2017-12-24T07:26:18.568Z,73.38
2017-12-24T07:28:47.692Z,74.79
2017-12-24T07:31:16.034Z,73.28
2017-12-24T07:33:45.182Z,72.67
2017-12-24T07:36:13.526Z,71.75
2017-12-24T07:38:41.910Z,71.91
2017-12-24T07:41:10.293Z,71.91
2017-12-24T07:43:38.622Z,72.03
2017-12-24T07:46:06.997Z,72.22
2017-12-24T07:48:35.336Z,72.67
2017-12-24T07:51:03.848Z,72.29
2017-12-24T07:53:32.240Z,71.97
2017-12-24T07:56:00.596Z,72.34
2017-12-24T07:58:29.560Z,72.05
2017-12-24T08:00:57.889Z,71.79
2017-12-24T08:03:26.317Z,71.84
2017-12-24T08:05:54.783Z,71.64
2017-12-24T08:08:23.126Z,71.84
2017-12-24T08:10:51.460Z,71.76
2017-12-24T08:13:19.848Z,72.64
2017-12-24T08:15:48.268Z,72.69
2017-12-24T08:18:17.402Z,72.77
2017-12-24T08:20:45.757Z,72.51
2017-12-24T08:23:14.896Z,72.33
2017-12-24T08:25:43.242Z,72.26
2017-12-24T08:28:11.561Z,72.63
2017-12-24T08:30:39.936Z,71.94
2017-12-24T08:33:08.291Z,72.41
2017-12-24T08:35:36.668Z,72.59
2017-12-24T08:38:05.040Z,71.91
2017-12-24T08:40:33.410Z,72.06
2017-12-24T08:43:01.786Z,71.88
2017-12-24T08:45:30.164Z,72.08
2017-12-24T08:47:58.504Z,71.93
2017-12-24T08:50:26.898Z,71.39
2017-12-24T08:52:56.192Z,71.67
2017-12-24T08:55:25.658Z,71.81
2017-12-24T08:57:54.052Z,71.51
2017-12-24T09:00:22.471Z,71.99
2017-12-24T09:02:50.853Z,72.20
2017-12-24T09:05:21.512Z,72.11
2017-12-24T09:07:53.579Z,72.07
2017-12-24T09:10:22.056Z,72.45
2017-12-24T09:12:50.660Z,72.53
2017-12-24T09:15:19.123Z,71.84
2017-12-24T09:17:56.744Z,72.18
2017-12-24T09:20:25.099Z,71.79
2017-12-24T09:22:55.923Z,71.78
2017-12-24T09:25:24.332Z,71.18
2017-12-24T09:27:52.800Z,71.21
2017-12-24T09:30:21.278Z,71.77
2017-12-24T09:32:49.728Z,71.85
2017-12-24T09:35:18.115Z,71.63
2017-12-24T09:37:47.247Z,72.04
2017-12-24T09:40:15.994Z,71.95
2017-12-24T09:42:44.607Z,72.31
2017-12-24T09:45:13.060Z,71.72
2017-12-24T09:47:41.469Z,71.68
2017-12-24T09:50:10.012Z,71.74
2017-12-24T09:52:38.577Z,71.70
2017-12-24T09:55:07.187Z,71.39
2017-12-24T09:57:36.449Z,70.96
2017-12-24T10:00:04.852Z,71.32
2017-12-24T10:02:33.287Z,71.35
2017-12-24T10:05:01.991Z,72.08
2017-12-24T10:07:31.225Z,71.89
2017-12-24T10:10:01.653Z,70.84
2017-12-24T10:12:30.895Z,70.97
2017-12-24T10:14:59.290Z,70.99
2017-12-24T10:17:27.778Z,70.83
2017-12-24T10:19:58.605Z,70.86
2017-12-24T10:22:27.731Z,71.71
2017-12-24T10:24:56.063Z,71.50
2017-12-24T10:27:24.452Z,70.91
2017-12-24T10:29:52.812Z,71.16
2017-12-24T10:32:21.306Z,70.81
2017-12-24T10:34:49.668Z,70.80
2017-12-24T10:37:18.101Z,70.94
2017-12-24T10:39:46.426Z,71.06
2017-12-24T10:42:14.811Z,70.86
2017-12-24T10:44:43.174Z,70.98
2017-12-24T10:47:11.571Z,71.38
2017-12-24T10:49:39.956Z,71.25
2017-12-24T10:52:08.300Z,71.03
2017-12-24T10:54:36.694Z,70.88
2017-12-24T10:57:05.079Z,70.78
2017-12-24T10:59:33.481Z,71.26
2017-12-24T11:02:02.701Z,70.99
2017-12-24T11:04:31.047Z,70.48
2017-12-24T11:06:59.396Z,70.87
2017-12-24T11:09:27.766Z,70.81
2017-12-24T11:11:56.114Z,70.51
2017-12-24T11:14:24.504Z,70.60
2017-12-24T11:16:52.880Z,71.33
2017-12-24T11:19:21.246Z,70.66
2017-12-24T11:21:49.617Z,70.58
2017-12-24T11:24:18.002Z,70.79
2017-12-24T11:26:56.532Z,71.46
2017-12-24T11:29:24.874Z,70.62
2017-12-24T11:31:53.253Z,71.14
2017-12-24T11:34:21.598Z,70.96
2017-12-24T11:36:49.966Z,70.70
2017-12-24T11:39:18.317Z,70.90
2017-12-24T11:41:46.782Z,70.98
2017-12-24T11:44:15.138Z,70.89
2017-12-24T11:46:43.481Z,70.80
2017-12-24T11:49:11.884Z,70.79
2017-12-24T11:51:40.239Z,70.93
2017-12-24T11:54:08.636Z,70.74
2017-12-24T11:56:36.968Z,70.81
2017-12-24T11:59:05.307Z,70.95
2017-12-24T12:01:33.701Z,71.16
2017-12-24T12:04:02.030Z,71.32
2017-12-24T12:06:30.422Z,71.70
2017-12-24T12:08:58.771Z,71.04
2017-12-24T12:11:28.040Z,70.85
2017-12-24T12:13:57.142Z,70.72
2017-12-24T12:16:25.577Z,70.96
2017-12-24T12:18:53.919Z,70.90
2017-12-24T12:21:22.297Z,70.81
2017-12-24T12:23:50.689Z,70.91
2017-12-24T12:26:19.058Z,70.37
2017-12-24T12:28:47.417Z,70.83
2017-12-24T12:31:15.800Z,70.13
2017-12-24T12:33:44.150Z,69.88
2017-12-24T12:36:13.346Z,70.32
2017-12-24T12:38:43.040Z,70.03
2017-12-24T12:41:11.397Z,69.77
2017-12-24T12:43:40.974Z,69.92
2017-12-24T12:46:09.414Z,70.05
2017-12-24T12:48:38.542Z,69.88
2017-12-24T12:51:06.955Z,69.98
2017-12-24T12:53:36.162Z,69.77
2017-12-24T12:56:09.438Z,69.44
2017-12-24T12:58:38.474Z,69.48
2017-12-24T13:01:07.774Z,69.90
2017-12-24T13:03:36.951Z,69.79
2017-12-24T13:06:05.354Z,69.34
2017-12-24T13:08:34.509Z,68.68
2017-12-24T13:11:03.000Z,68.69
2017-12-24T13:13:31.379Z,69.18
2017-12-24T13:16:01.494Z,69.52
2017-12-24T13:18:29.864Z,69.55
2017-12-24T13:20:58.246Z,69.77
2017-12-24T13:23:27.061Z,69.86
2017-12-24T13:25:55.395Z,69.94
2017-12-24T13:28:23.808Z,69.83
2017-12-24T13:30:52.159Z,69.91
2017-12-24T13:33:20.626Z,70.17
2017-12-24T13:35:50.535Z,70.69
2017-12-24T13:38:18.917Z,70.82
2017-12-24T13:40:47.268Z,71.29
2017-12-24T13:43:15.630Z,71.49
2017-12-24T13:45:44.775Z,71.34
2017-12-24T13:48:13.118Z,71.47
2017-12-24T13:50:43.117Z,71.76
2017-12-24T13:53:11.488Z,71.64
2017-12-24T13:55:39.885Z,71.84
2017-12-24T13:58:09.001Z,71.80
2017-12-24T14:00:37.347Z,71.70
2017-12-24T14:03:06.487Z,71.58
2017-12-24T14:05:34.821Z,71.66
2017-12-24T14:08:03.961Z,71.82
2017-12-24T14:10:32.913Z,71.91
2017-12-24T14:13:02.032Z,72.03
2017-12-24T14:15:31.173Z,71.94
2017-12-24T14:17:59.557Z,72.17
2017-12-24T14:20:27.893Z,72.02
2017-12-24T14:22:56.232Z,72.05
2017-12-24T14:25:27.654Z,71.91
2017-12-24T14:27:57.017Z,71.98
2017-12-24T14:30:27.572Z,71.69
2017-12-24T14:32:55.988Z,71.96
2017-12-24T14:35:24.364Z,72.00
2017-12-24T14:37:52.720Z,72.06
2017-12-24T14:40:21.057Z,72.25
2017-12-24T14:42:49.821Z,72.14
2017-12-24T14:45:18.982Z,71.99
2017-12-24T14:47:47.369Z,72.20
2017-12-24T14:50:15.726Z,72.08
2017-12-24T14:52:44.131Z,72.55
2017-12-24T14:55:12.462Z,72.47
2017-12-24T14:57:40.837Z,72.87
2017-12-24T15:00:09.229Z,72.93
2017-12-24T15:02:37.600Z,73.01
2017-12-24T15:05:05.979Z,73.01
2017-12-24T15:07:34.332Z,73.20
2017-12-24T15:10:02.740Z,73.35
2017-12-24T15:12:31.073Z,73.48
2017-12-24T15:15:00.234Z,73.29
2017-12-24T15:17:28.652Z,73.32
2017-12-24T15:19:57.769Z,73.35
2017-12-24T15:22:26.148Z,73.51
2017-12-24T15:24:54.493Z,72.97
2017-12-24T15:27:23.653Z,73.02
2017-12-24T15:29:51.994Z,73.35
2017-12-24T15:32:20.329Z,73.22
2017-12-24T15:34:48.715Z,73.23
2017-12-24T15:37:17.126Z,72.84
2017-12-24T15:39:45.478Z,72.84
2017-12-24T15:42:13.820Z,73.12
2017-12-24T15:44:42.186Z,73.13
2017-12-24T15:47:10.600Z,73.27
2017-12-24T15:49:38.948Z,73.74
2017-12-24T15:52:07.308Z,73.41
2017-12-24T15:54:35.684Z,73.72
2017-12-24T15:57:04.000Z,74.00
2017-12-24T15:59:32.381Z,74.19
2017-12-24T16:02:00.734Z,74.12
2017-12-24T16:04:29.117Z,74.38
2017-12-24T16:06:57.482Z,74.44
2017-12-24T16:09:25.815Z,74.66
2017-12-24T16:11:54.964Z,74.47
2017-12-24T16:14:23.309Z,74.25
2017-12-24T16:16:52.444Z,73.99
2017-12-24T16:19:20.782Z,73.75
2017-12-24T16:21:49.154Z,73.81
2017-12-24T16:24:18.254Z,73.74
2017-12-24T16:26:46.663Z,73.93
2017-12-24T16:29:15.012Z,73.95
2017-12-24T16:31:43.350Z,74.18
2017-12-24T16:34:11.733Z,74.21
2017-12-24T16:36:40.072Z,73.59
2017-12-24T16:39:08.440Z,73.55
2017-12-24T16:41:36.788Z,73.21
2017-12-24T16:44:05.924Z,73.10
2017-12-24T16:46:34.291Z,73.26
2017-12-24T16:49:02.656Z,73.53
2017-12-24T16:51:31.032Z,73.57
2017-12-24T16:53:59.372Z,73.50
2017-12-24T16:56:27.756Z,73.24
2017-12-24T16:58:56.096Z,73.29
2017-12-24T17:01:24.423Z,73.52
2017-12-24T17:03:53.544Z,74.19
2017-12-24T17:06:21.928Z,74.16
2017-12-24T17:08:50.274Z,74.59
2017-12-24T17:11:19.367Z,74.58
2017-12-24T17:13:48.573Z,74.43
2017-12-24T17:16:16.918Z,73.88
2017-12-24T17:18:45.305Z,73.42
2017-12-24T17:21:13.680Z,73.23
2017-12-24T17:23:42.014Z,73.25
2017-12-24T17:26:10.371Z,73.35
2017-12-24T17:28:38.739Z,73.58
2017-12-24T17:31:07.109Z,73.68
2017-12-24T17:33:36.227Z,73.54
2017-12-24T17:36:04.592Z,73.68
2017-12-24T17:38:33.723Z,73.56
2017-12-24T17:41:02.098Z,73.20
2017-12-24T17:43:30.504Z,73.10
2017-12-24T17:45:58.836Z,73.19
2017-12-24T17:48:27.209Z,73.23
2017-12-24T17:51:04.675Z,73.03
2017-12-24T17:53:33.057Z,73.14
2017-12-24T17:56:02.161Z,73.10
2017-12-24T17:58:31.308Z,73.22
2017-12-24T18:00:59.695Z,72.99
2017-12-24T18:03:28.027Z,72.94
2017-12-24T18:05:56.380Z,72.95
2017-12-24T18:08:25.516Z,72.91
2017-12-24T18:10:53.907Z,72.92
2017-12-24T18:13:22.347Z,72.64
2017-12-24T18:15:51.467Z,72.46
2017-12-24T18:18:19.817Z,72.64
2017-12-24T18:20:48.976Z,72.53
2017-12-24T18:23:17.309Z,72.77
2017-12-24T18:25:45.676Z,72.89
2017-12-24T18:28:14.070Z,72.94
2017-12-24T18:30:42.409Z,72.90
2017-12-24T18:33:10.763Z,72.94
2017-12-24T18:35:39.103Z,72.92
2017-12-24T18:38:07.466Z,72.77
2017-12-24T18:40:36.599Z,72.52
2017-12-24T18:43:04.977Z,72.36
2017-12-24T18:45:33.371Z,72.03
2017-12-24T18:48:01.696Z,72.00
2017-12-24T18:50:30.847Z,71.88
2017-12-24T18:52:59.189Z,71.74
2017-12-24T18:55:27.551Z,71.81
2017-12-24T18:57:55.890Z,71.71
2017-12-24T19:00:24.263Z,71.76
2017-12-24T19:02:52.644Z,71.62
2017-12-24T19:05:20.999Z,71.67
2017-12-24T19:07:49.363Z,71.44
2017-12-24T19:10:17.695Z,71.76
2017-12-24T19:12:46.055Z,71.78
2017-12-24T19:15:14.419Z,71.69
2017-12-24T19:17:42.743Z,71.56
2017-12-24T19:20:11.986Z,71.34
2017-12-24T19:22:40.319Z,71.23
2017-12-24T19:25:09.421Z,71.17
2017-12-24T19:27:37.794Z,71.27
2017-12-24T19:30:06.171Z,71.22
2017-12-24T19:32:35.266Z,71.39
2017-12-24T19:35:04.407Z,71.46
2017-12-24T19:37:32.739Z,71.29
2017-12-24T19:40:01.893Z,71.17
2017-12-24T19:42:30.238Z,71.20
2017-12-24T19:44:58.573Z,71.13
2017-12-24T19:47:27.722Z,71.37
2017-12-24T19:49:56.086Z,71.18
2017-12-24T19:52:24.468Z,71.19
2017-12-24T19:54:52.839Z,71.61
2017-12-24T19:57:21.215Z,71.66
2017-12-24T19:59:49.549Z,70.81
2017-12-24T20:02:18.080Z,70.97
2017-12-24T20:04:46.462Z,71.22
2017-12-24T20:07:14.788Z,71.15
2017-12-24T20:09:43.182Z,71.14
2017-12-24T20:12:12.324Z,71.44
2017-12-24T20:14:40.675Z,71.17
2017-12-24T20:17:09.067Z,71.32
2017-12-24T20:19:37.408Z,71.60
2017-12-24T20:22:07.072Z,71.87
2017-12-24T20:24:35.410Z,71.66
2017-12-24T20:27:05.334Z,72.06
2017-12-24T20:29:33.671Z,72.45
2017-12-24T20:32:02.074Z,72.20
2017-12-24T20:34:30.421Z,72.30
2017-12-24T20:36:58.982Z,72.35
2017-12-24T20:39:27.322Z,72.38
2017-12-24T20:41:55.719Z,72.36
2017-12-24T20:44:24.061Z,72.32
2017-12-24T20:46:53.206Z,72.33
2017-12-24T20:49:22.365Z,72.06
2017-12-24T20:51:51.610Z,72.18
2017-12-24T20:54:19.960Z,71.93
2017-12-24T20:56:48.338Z,71.84
2017-12-24T20:59:16.771Z,71.85
2017-12-24T21:01:45.903Z,72.05
2017-12-24T21:04:14.278Z,71.65
2017-12-24T21:06:42.609Z,71.36
2017-12-24T21:09:10.990Z,71.39
2017-12-24T21:11:39.341Z,71.58
2017-12-24T21:14:08.479Z,71.73
2017-12-24T21:16:36.842Z,71.45
2017-12-24T21:19:05.195Z,71.49
2017-12-24T21:21:33.578Z,71.16
2017-12-24T21:24:01.915Z,71.23
2017-12-24T21:26:30.259Z,71.14
2017-12-24T21:28:58.630Z,71.05
2017-12-24T21:31:26.973Z,71.19
2017-12-24T21:33:55.338Z,71.03
2017-12-24T21:36:23.681Z,70.73
2017-12-24T21:38:52.806Z,70.80
2017-12-24T21:41:21.147Z,70.82
2017-12-24T21:43:49.497Z,70.97
2017-12-24T21:46:17.875Z,71.23
2017-12-24T21:48:46.201Z,70.98
2017-12-24T21:51:15.561Z,70.92
2017-12-24T21:53:43.950Z,70.91
2017-12-24T21:56:12.286Z,70.89
2017-12-24T21:58:40.620Z,70.87
2017-12-24T22:01:08.999Z,70.76
2017-12-24T22:03:38.107Z,70.76
2017-12-24T22:06:07.292Z,70.54
2017-12-24T22:08:36.440Z,70.49
2017-12-24T22:11:04.788Z,70.38
2017-12-24T22:13:33.120Z,70.32
2017-12-24T22:16:01.490Z,70.32
2017-12-24T22:18:29.818Z,69.88
2017-12-24T22:20:58.969Z,69.98
2017-12-24T22:23:28.798Z,69.74
2017-12-24T22:25:57.173Z,69.54
2017-12-24T22:28:25.512Z,69.87
2017-12-24T22:30:53.909Z,69.64
2017-12-24T22:33:22.309Z,69.96
2017-12-24T22:35:51.472Z,69.79
2017-12-24T22:38:19.797Z,69.85
2017-12-24T22:40:48.985Z,69.84
2017-12-24T22:43:18.156Z,69.65
2017-12-24T22:45:46.536Z,69.83
2017-12-24T22:48:14.874Z,70.14
2017-12-24T22:50:43.253Z,69.91
2017-12-24T22:53:11.613Z,69.67
2017-12-24T22:55:39.974Z,69.88
2017-12-24T22:58:08.300Z,69.59
2017-12-24T23:00:37.497Z,70.00
2017-12-24T23:03:05.839Z,69.81
2017-12-24T23:05:34.980Z,69.73
2017-12-24T23:08:03.352Z,69.96
2017-12-24T23:10:31.700Z,69.95
2017-12-24T23:13:00.837Z,69.49
2017-12-24T23:15:29.177Z,69.70
2017-12-24T23:17:57.548Z,70.10
2017-12-24T23:20:26.644Z,70.00
2017-12-24T23:22:55.076Z,70.03
2017-12-24T23:25:23.400Z,70.06
2017-12-24T23:27:51.760Z,70.05
2017-12-24T23:30:20.112Z,69.90
2017-12-24T23:32:48.492Z,69.77
2017-12-24T23:35:16.848Z,70.26
2017-12-24T23:37:45.340Z,70.16
2017-12-24T23:40:13.676Z,70.42
2017-12-24T23:42:42.012Z,70.43
2017-12-24T23:45:10.372Z,70.42
2017-12-24T23:47:38.720Z,70.28
2017-12-24T23:50:07.100Z,70.37
2017-12-24T23:52:35.469Z,70.30
2017-12-24T23:55:03.800Z,70.45
2017-12-24T23:57:32.228Z,70.19
